sensor_id;sensor_type;location;lat;lon;timestamp;P1;durP1;ratioP1;P2;durP2;ratioP2
11084;SDS011;5596;46.826;8.650;2023-05-07T00:01:40;1.70;;;1.20;;
11084;SDS011;5596;46.826;8.650;2023-05-07T00:04:08;4.97;;;1.50;;
11084;SDS011;5596;46.826;8.650;2023-05-07T00:06:35;1.60;;;1.13;;
11084;SDS011;5596;46.826;8.650;2023-05-07T00:09:03;3.60;;;1.40;;
11084;SDS011;5596;46.826;8.650;2023-05-07T00:11:30;3.07;;;1.43;;
11084;SDS011;5596;46.826;8.650;2023-05-07T00:13:58;1.50;;;1.20;;
11084;SDS011;5596;46.826;8.650;2023-05-07T00:16:25;2.70;;;1.20;;
11084;SDS011;5596;46.826;8.650;2023-05-07T00:18:52;5.97;;;1.20;;
11084;SDS011;5596;46.826;8.650;2023-05-07T00:21:19;2.33;;;1.40;;
11084;SDS011;5596;46.826;8.650;2023-05-07T00:23:46;1.37;;;1.27;;
11084;SDS011;5596;46.826;8.650;2023-05-07T00:26:15;2.60;;;1.33;;
11084;SDS011;5596;46.826;8.650;2023-05-07T00:28:44;5.93;;;1.50;;
11084;SDS011;5596;46.826;8.650;2023-05-07T00:31:11;1.40;;;1.30;;
11084;SDS011;5596;46.826;8.650;2023-05-07T00:33:38;2.83;;;1.27;;
11084;SDS011;5596;46.826;8.650;2023-05-07T00:36:05;4.13;;;1.03;;
11084;SDS011;5596;46.826;8.650;2023-05-07T00:38:32;2.97;;;1.57;;
11084;SDS011;5596;46.826;8.650;2023-05-07T00:40:59;3.67;;;1.60;;
11084;SDS011;5596;46.826;8.650;2023-05-07T00:43:28;3.83;;;1.40;;
11084;SDS011;5596;46.826;8.650;2023-05-07T00:45:55;1.33;;;1.20;;
11084;SDS011;5596;46.826;8.650;2023-05-07T00:48:22;3.83;;;1.30;;
11084;SDS011;5596;46.826;8.650;2023-05-07T00:50:51;3.07;;;1.27;;
11084;SDS011;5596;46.826;8.650;2023-05-07T00:53:18;2.60;;;1.40;;
11084;SDS011;5596;46.826;8.650;2023-05-07T00:55:45;3.67;;;1.60;;
11084;SDS011;5596;46.826;8.650;2023-05-07T00:58:14;4.73;;;1.37;;
11084;SDS011;5596;46.826;8.650;2023-05-07T01:00:43;1.33;;;1.17;;
11084;SDS011;5596;46.826;8.650;2023-05-07T01:03:10;1.50;;;1.40;;
11084;SDS011;5596;46.826;8.650;2023-05-07T01:05:37;3.47;;;1.30;;
11084;SDS011;5596;46.826;8.650;2023-05-07T01:08:05;2.93;;;1.40;;
11084;SDS011;5596;46.826;8.650;2023-05-07T01:10:32;3.50;;;1.60;;
11084;SDS011;5596;46.826;8.650;2023-05-07T01:12:59;1.67;;;1.27;;
11084;SDS011;5596;46.826;8.650;2023-05-07T01:15:27;3.50;;;1.30;;
11084;SDS011;5596;46.826;8.650;2023-05-07T01:17:56;3.10;;;1.50;;
11084;SDS011;5596;46.826;8.650;2023-05-07T01:20:30;4.13;;;1.43;;
11084;SDS011;5596;46.826;8.650;2023-05-07T01:22:58;2.90;;;1.63;;
11084;SDS011;5596;46.826;8.650;2023-05-07T01:25:27;3.00;;;1.50;;
11084;SDS011;5596;46.826;8.650;2023-05-07T01:27:58;3.20;;;1.57;;
11084;SDS011;5596;46.826;8.650;2023-05-07T01:30:29;6.00;;;1.50;;
11084;SDS011;5596;46.826;8.650;2023-05-07T01:32:58;3.80;;;1.70;;
11084;SDS011;5596;46.826;8.650;2023-05-07T01:35:30;5.97;;;1.50;;
11084;SDS011;5596;46.826;8.650;2023-05-07T01:38:04;4.97;;;1.60;;
11084;SDS011;5596;46.826;8.650;2023-05-07T01:40:31;6.00;;;1.60;;
11084;SDS011;5596;46.826;8.650;2023-05-07T01:43:00;3.63;;;1.63;;
11084;SDS011;5596;46.826;8.650;2023-05-07T01:45:29;2.90;;;1.60;;
11084;SDS011;5596;46.826;8.650;2023-05-07T01:47:57;4.10;;;2.17;;
11084;SDS011;5596;46.826;8.650;2023-05-07T01:50:25;4.17;;;1.70;;
11084;SDS011;5596;46.826;8.650;2023-05-07T01:52:52;3.03;;;1.60;;
11084;SDS011;5596;46.826;8.650;2023-05-07T01:55:21;4.17;;;1.60;;
11084;SDS011;5596;46.826;8.650;2023-05-07T01:57:49;6.60;;;1.80;;
11084;SDS011;5596;46.826;8.650;2023-05-07T02:00:16;4.20;;;1.80;;
11084;SDS011;5596;46.826;8.650;2023-05-07T02:02:44;2.13;;;1.50;;
11084;SDS011;5596;46.826;8.650;2023-05-07T02:05:29;5.13;;;1.67;;
11084;SDS011;5596;46.826;8.650;2023-05-07T02:08:02;5.40;;;1.93;;
11084;SDS011;5596;46.826;8.650;2023-05-07T02:10:31;4.03;;;1.67;;
11084;SDS011;5596;46.826;8.650;2023-05-07T02:12:58;2.33;;;1.60;;
11084;SDS011;5596;46.826;8.650;2023-05-07T02:15:27;3.40;;;1.57;;
11084;SDS011;5596;46.826;8.650;2023-05-07T02:17:58;2.37;;;1.77;;
11084;SDS011;5596;46.826;8.650;2023-05-07T02:20:26;2.67;;;1.60;;
11084;SDS011;5596;46.826;8.650;2023-05-07T02:22:53;7.33;;;2.63;;
11084;SDS011;5596;46.826;8.650;2023-05-07T02:25:20;4.27;;;1.60;;
11084;SDS011;5596;46.826;8.650;2023-05-07T02:27:49;3.87;;;1.90;;
11084;SDS011;5596;46.826;8.650;2023-05-07T02:30:18;6.77;;;1.53;;
11084;SDS011;5596;46.826;8.650;2023-05-07T02:32:47;6.13;;;1.73;;
11084;SDS011;5596;46.826;8.650;2023-05-07T02:35:14;5.07;;;1.70;;
11084;SDS011;5596;46.826;8.650;2023-05-07T02:37:41;6.30;;;1.80;;
11084;SDS011;5596;46.826;8.650;2023-05-07T02:40:09;2.53;;;1.50;;
11084;SDS011;5596;46.826;8.650;2023-05-07T02:42:37;4.33;;;1.70;;
11084;SDS011;5596;46.826;8.650;2023-05-07T02:45:07;6.57;;;1.60;;
11084;SDS011;5596;46.826;8.650;2023-05-07T02:47:35;3.77;;;1.80;;
11084;SDS011;5596;46.826;8.650;2023-05-07T02:50:03;1.50;;;1.40;;
11084;SDS011;5596;46.826;8.650;2023-05-07T02:52:31;3.00;;;1.60;;
11084;SDS011;5596;46.826;8.650;2023-05-07T02:54:58;3.93;;;1.80;;
11084;SDS011;5596;46.826;8.650;2023-05-07T02:57:26;5.27;;;1.53;;
11084;SDS011;5596;46.826;8.650;2023-05-07T02:59:53;4.43;;;1.50;;
11084;SDS011;5596;46.826;8.650;2023-05-07T03:02:22;2.00;;;1.60;;
11084;SDS011;5596;46.826;8.650;2023-05-07T03:04:50;1.90;;;1.70;;
11084;SDS011;5596;46.826;8.650;2023-05-07T03:07:18;7.10;;;1.70;;
11084;SDS011;5596;46.826;8.650;2023-05-07T03:09:45;4.67;;;1.50;;
11084;SDS011;5596;46.826;8.650;2023-05-07T03:12:12;2.53;;;1.73;;
11084;SDS011;5596;46.826;8.650;2023-05-07T03:14:39;6.00;;;1.60;;
11084;SDS011;5596;46.826;8.650;2023-05-07T03:17:06;2.73;;;1.63;;
11084;SDS011;5596;46.826;8.650;2023-05-07T03:19:34;10.50;;;1.77;;
11084;SDS011;5596;46.826;8.650;2023-05-07T03:22:01;5.17;;;2.00;;
11084;SDS011;5596;46.826;8.650;2023-05-07T03:24:29;5.60;;;1.87;;
11084;SDS011;5596;46.826;8.650;2023-05-07T03:26:56;3.40;;;1.60;;
11084;SDS011;5596;46.826;8.650;2023-05-07T03:29:23;3.47;;;1.80;;
11084;SDS011;5596;46.826;8.650;2023-05-07T03:31:50;7.97;;;1.50;;
11084;SDS011;5596;46.826;8.650;2023-05-07T03:34:17;4.97;;;2.00;;
11084;SDS011;5596;46.826;8.650;2023-05-07T03:36:48;3.47;;;1.87;;
11084;SDS011;5596;46.826;8.650;2023-05-07T03:39:17;4.00;;;1.67;;
11084;SDS011;5596;46.826;8.650;2023-05-07T03:41:44;2.77;;;1.70;;
11084;SDS011;5596;46.826;8.650;2023-05-07T03:44:11;3.27;;;1.90;;
11084;SDS011;5596;46.826;8.650;2023-05-07T03:46:38;7.07;;;1.60;;
11084;SDS011;5596;46.826;8.650;2023-05-07T03:49:07;8.40;;;1.90;;
11084;SDS011;5596;46.826;8.650;2023-05-07T03:51:34;3.37;;;1.80;;
11084;SDS011;5596;46.826;8.650;2023-05-07T03:54:03;4.30;;;2.10;;
11084;SDS011;5596;46.826;8.650;2023-05-07T03:56:31;2.53;;;1.60;;
11084;SDS011;5596;46.826;8.650;2023-05-07T03:58:59;3.17;;;1.70;;
11084;SDS011;5596;46.826;8.650;2023-05-07T04:01:26;3.30;;;1.70;;
11084;SDS011;5596;46.826;8.650;2023-05-07T04:03:55;3.50;;;1.73;;
11084;SDS011;5596;46.826;8.650;2023-05-07T04:06:22;5.53;;;1.90;;
11084;SDS011;5596;46.826;8.650;2023-05-07T04:08:49;4.20;;;1.87;;
11084;SDS011;5596;46.826;8.650;2023-05-07T04:11:18;4.43;;;1.73;;
11084;SDS011;5596;46.826;8.650;2023-05-07T04:13:46;3.57;;;1.80;;
11084;SDS011;5596;46.826;8.650;2023-05-07T04:16:15;2.70;;;2.10;;
11084;SDS011;5596;46.826;8.650;2023-05-07T04:18:42;5.93;;;1.80;;
11084;SDS011;5596;46.826;8.650;2023-05-07T04:21:13;6.73;;;1.77;;
11084;SDS011;5596;46.826;8.650;2023-05-07T04:23:42;1.97;;;1.60;;
11084;SDS011;5596;46.826;8.650;2023-05-07T04:26:11;2.73;;;1.67;;
11084;SDS011;5596;46.826;8.650;2023-05-07T04:28:43;2.13;;;1.83;;
11084;SDS011;5596;46.826;8.650;2023-05-07T04:31:10;6.73;;;1.80;;
11084;SDS011;5596;46.826;8.650;2023-05-07T04:33:38;4.20;;;1.93;;
11084;SDS011;5596;46.826;8.650;2023-05-07T04:36:08;5.33;;;2.23;;
11084;SDS011;5596;46.826;8.650;2023-05-07T04:38:43;3.43;;;1.70;;
11084;SDS011;5596;46.826;8.650;2023-05-07T04:41:12;6.17;;;1.80;;
11084;SDS011;5596;46.826;8.650;2023-05-07T04:43:40;3.50;;;2.00;;
11084;SDS011;5596;46.826;8.650;2023-05-07T04:46:10;4.03;;;2.00;;
11084;SDS011;5596;46.826;8.650;2023-05-07T04:48:38;2.50;;;1.90;;
11084;SDS011;5596;46.826;8.650;2023-05-07T04:51:05;4.50;;;2.17;;
11084;SDS011;5596;46.826;8.650;2023-05-07T04:53:33;4.53;;;2.20;;
11084;SDS011;5596;46.826;8.650;2023-05-07T04:56:00;2.87;;;1.90;;
11084;SDS011;5596;46.826;8.650;2023-05-07T04:58:34;3.77;;;1.90;;
11084;SDS011;5596;46.826;8.650;2023-05-07T05:01:01;5.37;;;1.80;;
11084;SDS011;5596;46.826;8.650;2023-05-07T05:03:30;4.37;;;2.20;;
11084;SDS011;5596;46.826;8.650;2023-05-07T05:05:57;3.17;;;1.77;;
11084;SDS011;5596;46.826;8.650;2023-05-07T05:08:27;3.60;;;1.93;;
11084;SDS011;5596;46.826;8.650;2023-05-07T05:10:55;3.37;;;1.53;;
11084;SDS011;5596;46.826;8.650;2023-05-07T05:13:23;4.70;;;1.90;;
11084;SDS011;5596;46.826;8.650;2023-05-07T05:15:50;3.03;;;1.80;;
11084;SDS011;5596;46.826;8.650;2023-05-07T05:18:17;1.67;;;1.50;;
11084;SDS011;5596;46.826;8.650;2023-05-07T05:20:46;2.33;;;2.03;;
11084;SDS011;5596;46.826;8.650;2023-05-07T05:23:13;2.87;;;2.03;;
11084;SDS011;5596;46.826;8.650;2023-05-07T05:25:40;3.43;;;1.83;;
11084;SDS011;5596;46.826;8.650;2023-05-07T05:28:09;5.37;;;2.17;;
11084;SDS011;5596;46.826;8.650;2023-05-07T05:30:37;4.63;;;2.33;;
11084;SDS011;5596;46.826;8.650;2023-05-07T05:33:04;3.43;;;2.00;;
11084;SDS011;5596;46.826;8.650;2023-05-07T05:35:32;3.93;;;2.10;;
11084;SDS011;5596;46.826;8.650;2023-05-07T05:38:05;2.97;;;2.17;;
11084;SDS011;5596;46.826;8.650;2023-05-07T05:40:33;2.40;;;2.20;;
11084;SDS011;5596;46.826;8.650;2023-05-07T05:43:00;4.77;;;2.20;;
11084;SDS011;5596;46.826;8.650;2023-05-07T05:45:27;2.53;;;2.10;;
11084;SDS011;5596;46.826;8.650;2023-05-07T05:47:55;6.43;;;2.20;;
11084;SDS011;5596;46.826;8.650;2023-05-07T05:50:23;5.07;;;2.27;;
11084;SDS011;5596;46.826;8.650;2023-05-07T05:52:51;5.73;;;2.30;;
11084;SDS011;5596;46.826;8.650;2023-05-07T05:55:20;3.17;;;2.23;;
11084;SDS011;5596;46.826;8.650;2023-05-07T05:57:48;6.23;;;2.30;;
11084;SDS011;5596;46.826;8.650;2023-05-07T06:00:15;2.53;;;2.30;;
11084;SDS011;5596;46.826;8.650;2023-05-07T06:02:45;5.30;;;2.30;;
11084;SDS011;5596;46.826;8.650;2023-05-07T06:05:18;3.30;;;2.80;;
11084;SDS011;5596;46.826;8.650;2023-05-07T06:07:49;4.67;;;3.10;;
11084;SDS011;5596;46.826;8.650;2023-05-07T06:10:16;3.83;;;2.70;;
11084;SDS011;5596;46.826;8.650;2023-05-07T06:12:45;3.97;;;2.73;;
11084;SDS011;5596;46.826;8.650;2023-05-07T06:15:12;4.60;;;2.33;;
11084;SDS011;5596;46.826;8.650;2023-05-07T06:17:42;5.87;;;2.30;;
11084;SDS011;5596;46.826;8.650;2023-05-07T06:20:10;4.83;;;2.43;;
11084;SDS011;5596;46.826;8.650;2023-05-07T06:22:38;4.33;;;2.30;;
11084;SDS011;5596;46.826;8.650;2023-05-07T06:25:09;5.17;;;2.77;;
11084;SDS011;5596;46.826;8.650;2023-05-07T06:27:37;5.40;;;2.70;;
11084;SDS011;5596;46.826;8.650;2023-05-07T06:30:07;7.20;;;3.87;;
11084;SDS011;5596;46.826;8.650;2023-05-07T06:32:34;5.07;;;3.77;;
11084;SDS011;5596;46.826;8.650;2023-05-07T06:35:03;6.53;;;4.23;;
11084;SDS011;5596;46.826;8.650;2023-05-07T06:37:32;5.60;;;3.83;;
11084;SDS011;5596;46.826;8.650;2023-05-07T06:40:03;8.97;;;4.40;;
11084;SDS011;5596;46.826;8.650;2023-05-07T06:42:33;5.40;;;3.87;;
11084;SDS011;5596;46.826;8.650;2023-05-07T06:45:18;4.13;;;3.03;;
11084;SDS011;5596;46.826;8.650;2023-05-07T06:47:46;6.90;;;3.20;;
11084;SDS011;5596;46.826;8.650;2023-05-07T06:50:13;3.33;;;2.70;;
11084;SDS011;5596;46.826;8.650;2023-05-07T06:52:42;2.97;;;2.60;;
11084;SDS011;5596;46.826;8.650;2023-05-07T06:55:09;3.57;;;2.80;;
11084;SDS011;5596;46.826;8.650;2023-05-07T06:57:38;3.83;;;2.60;;
11084;SDS011;5596;46.826;8.650;2023-05-07T07:00:05;6.90;;;3.13;;
11084;SDS011;5596;46.826;8.650;2023-05-07T07:02:43;7.67;;;2.70;;
11084;SDS011;5596;46.826;8.650;2023-05-07T07:05:12;4.17;;;2.40;;
11084;SDS011;5596;46.826;8.650;2023-05-07T07:07:39;3.70;;;2.60;;
11084;SDS011;5596;46.826;8.650;2023-05-07T07:10:06;5.97;;;3.00;;
11084;SDS011;5596;46.826;8.650;2023-05-07T07:12:34;4.43;;;2.70;;
11084;SDS011;5596;46.826;8.650;2023-05-07T07:15:02;6.57;;;2.80;;
11084;SDS011;5596;46.826;8.650;2023-05-07T07:17:29;5.03;;;2.77;;
11084;SDS011;5596;46.826;8.650;2023-05-07T07:19:58;5.67;;;2.30;;
11084;SDS011;5596;46.826;8.650;2023-05-07T07:22:25;2.37;;;1.87;;
11084;SDS011;5596;46.826;8.650;2023-05-07T07:24:53;3.37;;;1.93;;
11084;SDS011;5596;46.826;8.650;2023-05-07T07:27:21;2.90;;;1.83;;
11084;SDS011;5596;46.826;8.650;2023-05-07T07:29:48;4.73;;;2.00;;
11084;SDS011;5596;46.826;8.650;2023-05-07T07:32:15;3.90;;;1.80;;
11084;SDS011;5596;46.826;8.650;2023-05-07T07:34:43;2.57;;;2.00;;
11084;SDS011;5596;46.826;8.650;2023-05-07T07:37:12;4.17;;;2.10;;
11084;SDS011;5596;46.826;8.650;2023-05-07T07:39:40;4.70;;;2.03;;
11084;SDS011;5596;46.826;8.650;2023-05-07T07:42:08;5.17;;;2.23;;
11084;SDS011;5596;46.826;8.650;2023-05-07T07:44:35;3.67;;;2.07;;
11084;SDS011;5596;46.826;8.650;2023-05-07T07:47:07;4.17;;;1.80;;
11084;SDS011;5596;46.826;8.650;2023-05-07T07:49:34;2.20;;;2.00;;
11084;SDS011;5596;46.826;8.650;2023-05-07T07:52:04;4.30;;;1.93;;
11084;SDS011;5596;46.826;8.650;2023-05-07T07:54:35;5.90;;;2.07;;
11084;SDS011;5596;46.826;8.650;2023-05-07T07:57:05;4.33;;;1.80;;
11084;SDS011;5596;46.826;8.650;2023-05-07T07:59:33;6.57;;;2.00;;
11084;SDS011;5596;46.826;8.650;2023-05-07T08:02:00;4.70;;;1.97;;
11084;SDS011;5596;46.826;8.650;2023-05-07T08:04:28;3.50;;;2.10;;
11084;SDS011;5596;46.826;8.650;2023-05-07T08:07:01;4.53;;;2.13;;
11084;SDS011;5596;46.826;8.650;2023-05-07T08:09:30;3.80;;;2.10;;
11084;SDS011;5596;46.826;8.650;2023-05-07T08:12:01;4.03;;;2.33;;
11084;SDS011;5596;46.826;8.650;2023-05-07T08:14:31;3.70;;;2.10;;
11084;SDS011;5596;46.826;8.650;2023-05-07T08:16:59;2.73;;;1.93;;
11084;SDS011;5596;46.826;8.650;2023-05-07T08:19:27;3.70;;;2.10;;
11084;SDS011;5596;46.826;8.650;2023-05-07T08:21:54;3.87;;;1.90;;
11084;SDS011;5596;46.826;8.650;2023-05-07T08:24:23;3.13;;;1.87;;
11084;SDS011;5596;46.826;8.650;2023-05-07T08:26:50;4.03;;;2.33;;
11084;SDS011;5596;46.826;8.650;2023-05-07T08:29:19;2.27;;;2.00;;
11084;SDS011;5596;46.826;8.650;2023-05-07T08:31:46;4.30;;;2.40;;
11084;SDS011;5596;46.826;8.650;2023-05-07T08:34:13;4.67;;;2.20;;
11084;SDS011;5596;46.826;8.650;2023-05-07T08:36:43;3.53;;;1.83;;
11084;SDS011;5596;46.826;8.650;2023-05-07T08:39:14;5.57;;;2.47;;
11084;SDS011;5596;46.826;8.650;2023-05-07T08:41:44;2.23;;;1.90;;
11084;SDS011;5596;46.826;8.650;2023-05-07T08:44:12;3.13;;;2.30;;
11084;SDS011;5596;46.826;8.650;2023-05-07T08:46:43;4.25;;;2.08;;
11084;SDS011;5596;46.826;8.650;2023-05-07T08:49:15;3.38;;;1.88;;
11084;SDS011;5596;46.826;8.650;2023-05-07T08:51:43;5.72;;;2.30;;
11084;SDS011;5596;46.826;8.650;2023-05-07T08:54:10;4.15;;;2.13;;
11084;SDS011;5596;46.826;8.650;2023-05-07T08:56:38;3.15;;;2.08;;
11084;SDS011;5596;46.826;8.650;2023-05-07T08:59:06;3.85;;;2.30;;
11084;SDS011;5596;46.826;8.650;2023-05-07T09:01:33;3.25;;;1.95;;
11084;SDS011;5596;46.826;8.650;2023-05-07T09:04:02;3.13;;;1.90;;
11084;SDS011;5596;46.826;8.650;2023-05-07T09:06:31;2.92;;;1.90;;
11084;SDS011;5596;46.826;8.650;2023-05-07T09:08:59;3.88;;;2.10;;
11084;SDS011;5596;46.826;8.650;2023-05-07T09:11:29;4.47;;;2.17;;
11084;SDS011;5596;46.826;8.650;2023-05-07T09:13:59;3.55;;;1.90;;
11084;SDS011;5596;46.826;8.650;2023-05-07T09:16:28;2.53;;;2.25;;
11084;SDS011;5596;46.826;8.650;2023-05-07T09:18:58;2.90;;;1.90;;
11084;SDS011;5596;46.826;8.650;2023-05-07T09:21:28;2.58;;;1.90;;
11084;SDS011;5596;46.826;8.650;2023-05-07T09:23:58;4.18;;;1.90;;
11084;SDS011;5596;46.826;8.650;2023-05-07T09:26:34;3.55;;;1.90;;
11084;SDS011;5596;46.826;8.650;2023-05-07T09:29:03;2.25;;;1.90;;
11084;SDS011;5596;46.826;8.650;2023-05-07T09:31:30;4.28;;;1.90;;
11084;SDS011;5596;46.826;8.650;2023-05-07T09:33:58;2.60;;;1.90;;
11084;SDS011;5596;46.826;8.650;2023-05-07T09:36:31;2.15;;;1.95;;
11084;SDS011;5596;46.826;8.650;2023-05-07T09:38:59;2.35;;;1.80;;
11084;SDS011;5596;46.826;8.650;2023-05-07T09:41:28;3.28;;;2.08;;
11084;SDS011;5596;46.826;8.650;2023-05-07T09:44:18;2.63;;;1.92;;
11084;SDS011;5596;46.826;8.650;2023-05-07T09:46:50;2.13;;;1.85;;
11084;SDS011;5596;46.826;8.650;2023-05-07T09:49:28;2.47;;;2.13;;
11084;SDS011;5596;46.826;8.650;2023-05-07T09:52:03;3.40;;;1.92;;
11084;SDS011;5596;46.826;8.650;2023-05-07T09:54:37;2.30;;;2.10;;
11084;SDS011;5596;46.826;8.650;2023-05-07T09:57:05;2.28;;;1.95;;
11084;SDS011;5596;46.826;8.650;2023-05-07T09:59:34;2.42;;;2.00;;
11084;SDS011;5596;46.826;8.650;2023-05-07T10:02:07;3.17;;;1.90;;
11084;SDS011;5596;46.826;8.650;2023-05-07T10:04:44;6.22;;;2.25;;
11084;SDS011;5596;46.826;8.650;2023-05-07T10:07:16;3.47;;;1.90;;
11084;SDS011;5596;46.826;8.650;2023-05-07T10:09:44;2.58;;;2.00;;
11084;SDS011;5596;46.826;8.650;2023-05-07T10:12:21;2.83;;;2.03;;
11084;SDS011;5596;46.826;8.650;2023-05-07T10:14:50;2.10;;;1.90;;
11084;SDS011;5596;46.826;8.650;2023-05-07T10:17:19;6.40;;;4.43;;
11084;SDS011;5596;46.826;8.650;2023-05-07T10:19:47;2.40;;;2.20;;
11084;SDS011;5596;46.826;8.650;2023-05-07T10:22:19;2.88;;;2.42;;
11084;SDS011;5596;46.826;8.650;2023-05-07T10:24:48;3.47;;;2.63;;
11084;SDS011;5596;46.826;8.650;2023-05-07T10:27:20;4.32;;;2.58;;
11084;SDS011;5596;46.826;8.650;2023-05-07T10:29:54;4.05;;;2.47;;
11084;SDS011;5596;46.826;8.650;2023-05-07T10:32:36;2.88;;;2.30;;
11084;SDS011;5596;46.826;8.650;2023-05-07T10:35:12;3.08;;;2.10;;
11084;SDS011;5596;46.826;8.650;2023-05-07T10:37:44;3.45;;;2.40;;
11084;SDS011;5596;46.826;8.650;2023-05-07T10:40:12;3.20;;;2.38;;
11084;SDS011;5596;46.826;8.650;2023-05-07T10:42:52;3.53;;;2.42;;
11084;SDS011;5596;46.826;8.650;2023-05-07T10:45:22;3.38;;;2.00;;
11084;SDS011;5596;46.826;8.650;2023-05-07T10:48:08;4.45;;;2.10;;
11084;SDS011;5596;46.826;8.650;2023-05-07T10:50:37;2.80;;;2.50;;
11084;SDS011;5596;46.826;8.650;2023-05-07T11:02:16;4.47;;;1.92;;
11084;SDS011;5596;46.826;8.650;2023-05-07T11:07:54;3.50;;;2.30;;
11084;SDS011;5596;46.826;8.650;2023-05-07T11:13:42;6.28;;;2.25;;
11084;SDS011;5596;46.826;8.650;2023-05-07T11:16:19;3.83;;;2.10;;
11084;SDS011;5596;46.826;8.650;2023-05-07T11:18:54;2.88;;;2.28;;
11084;SDS011;5596;46.826;8.650;2023-05-07T11:21:41;2.90;;;1.90;;
11084;SDS011;5596;46.826;8.650;2023-05-07T11:24:38;2.90;;;2.00;;
11084;SDS011;5596;46.826;8.650;2023-05-07T11:27:08;2.65;;;1.85;;
11084;SDS011;5596;46.826;8.650;2023-05-07T11:29:38;3.50;;;2.30;;
11084;SDS011;5596;46.826;8.650;2023-05-07T11:32:09;2.63;;;2.03;;
11084;SDS011;5596;46.826;8.650;2023-05-07T11:34:45;1.83;;;1.70;;
11084;SDS011;5596;46.826;8.650;2023-05-07T11:37:16;2.10;;;1.90;;
11084;SDS011;5596;46.826;8.650;2023-05-07T11:39:51;4.93;;;2.22;;
11084;SDS011;5596;46.826;8.650;2023-05-07T11:42:34;3.45;;;2.10;;
11084;SDS011;5596;46.826;8.650;2023-05-07T11:45:02;3.30;;;2.17;;
11084;SDS011;5596;46.826;8.650;2023-05-07T11:47:31;2.85;;;1.90;;
11084;SDS011;5596;46.826;8.650;2023-05-07T11:50:02;2.38;;;1.90;;
11084;SDS011;5596;46.826;8.650;2023-05-07T11:52:31;2.53;;;1.90;;
11084;SDS011;5596;46.826;8.650;2023-05-07T11:54:59;2.08;;;1.88;;
11084;SDS011;5596;46.826;8.650;2023-05-07T11:57:28;1.90;;;1.70;;
11084;SDS011;5596;46.826;8.650;2023-05-07T11:59:57;2.30;;;1.80;;
11084;SDS011;5596;46.826;8.650;2023-05-07T12:02:27;3.08;;;2.13;;
11084;SDS011;5596;46.826;8.650;2023-05-07T12:04:54;3.65;;;1.92;;
11084;SDS011;5596;46.826;8.650;2023-05-07T12:07:23;2.05;;;1.80;;
11084;SDS011;5596;46.826;8.650;2023-05-07T12:09:51;2.65;;;2.13;;
11084;SDS011;5596;46.826;8.650;2023-05-07T12:12:18;2.85;;;2.10;;
11084;SDS011;5596;46.826;8.650;2023-05-07T12:14:45;4.35;;;2.00;;
11084;SDS011;5596;46.826;8.650;2023-05-07T12:17:14;2.53;;;2.10;;
11084;SDS011;5596;46.826;8.650;2023-05-07T12:19:42;2.70;;;2.03;;
11084;SDS011;5596;46.826;8.650;2023-05-07T12:22:11;2.00;;;1.90;;
11084;SDS011;5596;46.826;8.650;2023-05-07T12:24:48;2.63;;;1.90;;
11084;SDS011;5596;46.826;8.650;2023-05-07T12:27:16;2.40;;;2.20;;
11084;SDS011;5596;46.826;8.650;2023-05-07T12:29:45;3.60;;;2.08;;
11084;SDS011;5596;46.826;8.650;2023-05-07T12:32:14;4.90;;;3.05;;
11084;SDS011;5596;46.826;8.650;2023-05-07T12:34:42;3.83;;;2.15;;
11084;SDS011;5596;46.826;8.650;2023-05-07T12:37:09;3.08;;;2.38;;
11084;SDS011;5596;46.826;8.650;2023-05-07T12:39:37;4.80;;;2.45;;
11084;SDS011;5596;46.826;8.650;2023-05-07T12:42:05;2.70;;;2.15;;
11084;SDS011;5596;46.826;8.650;2023-05-07T12:44:32;4.22;;;2.80;;
11084;SDS011;5596;46.826;8.650;2023-05-07T12:47:01;4.10;;;2.35;;
11084;SDS011;5596;46.826;8.650;2023-05-07T12:49:30;3.28;;;2.67;;
11084;SDS011;5596;46.826;8.650;2023-05-07T12:51:57;2.85;;;2.50;;
11084;SDS011;5596;46.826;8.650;2023-05-07T12:54:28;4.80;;;3.13;;
11084;SDS011;5596;46.826;8.650;2023-05-07T12:57:00;3.22;;;2.78;;
11084;SDS011;5596;46.826;8.650;2023-05-07T12:59:31;3.90;;;2.60;;
11084;SDS011;5596;46.826;8.650;2023-05-07T13:01:59;4.80;;;3.20;;
11084;SDS011;5596;46.826;8.650;2023-05-07T13:04:26;3.60;;;3.28;;
11084;SDS011;5596;46.826;8.650;2023-05-07T13:06:55;6.13;;;2.80;;
11084;SDS011;5596;46.826;8.650;2023-05-07T13:09:22;3.17;;;2.88;;
11084;SDS011;5596;46.826;8.650;2023-05-07T13:11:49;4.05;;;2.80;;
11084;SDS011;5596;46.826;8.650;2023-05-07T13:14:16;3.45;;;2.63;;
11084;SDS011;5596;46.826;8.650;2023-05-07T13:16:46;3.28;;;2.80;;
11084;SDS011;5596;46.826;8.650;2023-05-07T13:19:13;2.88;;;2.60;;
11084;SDS011;5596;46.826;8.650;2023-05-07T13:21:40;4.22;;;2.78;;
11084;SDS011;5596;46.826;8.650;2023-05-07T13:24:08;4.68;;;2.85;;
11084;SDS011;5596;46.826;8.650;2023-05-07T13:26:35;3.33;;;3.00;;
11084;SDS011;5596;46.826;8.650;2023-05-07T13:29:03;4.32;;;3.15;;
11084;SDS011;5596;46.826;8.650;2023-05-07T13:31:30;5.90;;;3.28;;
11084;SDS011;5596;46.826;8.650;2023-05-07T13:33:58;4.55;;;2.53;;
11084;SDS011;5596;46.826;8.650;2023-05-07T13:36:25;4.25;;;2.67;;
11084;SDS011;5596;46.826;8.650;2023-05-07T13:38:53;5.05;;;2.78;;
11084;SDS011;5596;46.826;8.650;2023-05-07T13:41:22;6.13;;;3.60;;
11084;SDS011;5596;46.826;8.650;2023-05-07T13:43:49;4.97;;;3.17;;
11084;SDS011;5596;46.826;8.650;2023-05-07T13:46:15;4.63;;;3.13;;
11084;SDS011;5596;46.826;8.650;2023-05-07T13:48:42;4.72;;;2.90;;
11084;SDS011;5596;46.826;8.650;2023-05-07T13:51:09;7.20;;;3.28;;
11084;SDS011;5596;46.826;8.650;2023-05-07T13:53:37;4.47;;;2.80;;
11084;SDS011;5596;46.826;8.650;2023-05-07T13:56:05;3.17;;;2.38;;
11084;SDS011;5596;46.826;8.650;2023-05-07T13:58:34;5.60;;;2.88;;
11084;SDS011;5596;46.826;8.650;2023-05-07T14:01:02;3.30;;;2.50;;
11084;SDS011;5596;46.826;8.650;2023-05-07T14:03:29;5.68;;;2.70;;
11084;SDS011;5596;46.826;8.650;2023-05-07T14:05:57;4.03;;;2.42;;
11084;SDS011;5596;46.826;8.650;2023-05-07T14:08:25;5.57;;;3.05;;
11084;SDS011;5596;46.826;8.650;2023-05-07T14:10:52;3.92;;;2.95;;
11084;SDS011;5596;46.826;8.650;2023-05-07T14:13:19;2.80;;;2.28;;
11084;SDS011;5596;46.826;8.650;2023-05-07T14:15:48;3.10;;;2.35;;
11084;SDS011;5596;46.826;8.650;2023-05-07T14:18:14;4.40;;;3.10;;
11084;SDS011;5596;46.826;8.650;2023-05-07T14:20:42;5.70;;;2.97;;
11084;SDS011;5596;46.826;8.650;2023-05-07T14:23:11;3.33;;;2.70;;
11084;SDS011;5596;46.826;8.650;2023-05-07T14:25:38;6.68;;;3.63;;
11084;SDS011;5596;46.826;8.650;2023-05-07T14:28:05;6.90;;;3.30;;
11084;SDS011;5596;46.826;8.650;2023-05-07T14:30:33;6.40;;;3.38;;
11084;SDS011;5596;46.826;8.650;2023-05-07T14:33:01;4.60;;;2.80;;
11084;SDS011;5596;46.826;8.650;2023-05-07T14:35:28;5.05;;;2.67;;
11084;SDS011;5596;46.826;8.650;2023-05-07T14:37:55;2.83;;;2.40;;
11084;SDS011;5596;46.826;8.650;2023-05-07T14:40:22;3.95;;;2.20;;
11084;SDS011;5596;46.826;8.650;2023-05-07T14:42:49;3.53;;;2.13;;
11084;SDS011;5596;46.826;8.650;2023-05-07T14:45:17;1.73;;;1.63;;
11084;SDS011;5596;46.826;8.650;2023-05-07T14:47:43;2.10;;;1.88;;
11084;SDS011;5596;46.826;8.650;2023-05-07T14:50:12;3.30;;;2.20;;
11084;SDS011;5596;46.826;8.650;2023-05-07T14:52:39;3.42;;;2.30;;
11084;SDS011;5596;46.826;8.650;2023-05-07T14:55:06;5.03;;;2.45;;
11084;SDS011;5596;46.826;8.650;2023-05-07T14:57:34;4.13;;;2.60;;
11084;SDS011;5596;46.826;8.650;2023-05-07T15:00:01;2.92;;;2.30;;
11084;SDS011;5596;46.826;8.650;2023-05-07T15:02:30;4.13;;;2.08;;
11084;SDS011;5596;46.826;8.650;2023-05-07T15:04:58;2.10;;;1.88;;
11084;SDS011;5596;46.826;8.650;2023-05-07T15:07:27;2.25;;;1.98;;
11084;SDS011;5596;46.826;8.650;2023-05-07T15:09:54;2.42;;;2.22;;
11084;SDS011;5596;46.826;8.650;2023-05-07T15:12:21;2.87;;;2.20;;
11084;SDS011;5596;46.826;8.650;2023-05-07T15:14:48;2.80;;;2.07;;
11084;SDS011;5596;46.826;8.650;2023-05-07T15:17:16;2.40;;;2.20;;
11084;SDS011;5596;46.826;8.650;2023-05-07T15:19:43;2.40;;;2.20;;
11084;SDS011;5596;46.826;8.650;2023-05-07T15:22:10;2.30;;;2.00;;
11084;SDS011;5596;46.826;8.650;2023-05-07T15:24:39;2.20;;;1.80;;
11084;SDS011;5596;46.826;8.650;2023-05-07T15:27:06;2.57;;;2.37;;